Time,TemperatureF,DewpointF,PressureIn,WindDirection,WindDirectionDegrees,WindSpeedMPH,WindSpeedGustMPH,Humidity,HourlyPrecipIn,Conditions,Clouds,dailyrainin,SoftwareType,DateUTC
2013-05-06 00:03:00,52.5,49.4,28.76,SE,130,0.0,0.0,89,0.00,,SKC,0.00,VWS V14.00,2013-05-06 04:03:00,
2013-05-06 00:08:00,52.3,48.9,28.76,SE,130,0.0,0.0,88,0.00,,SKC,0.00,VWS V14.00,2013-05-06 04:08:00,
2013-05-06 00:09:00,52.3,48.9,28.76,SE,130,0.0,0.0,88,0.00,,SKC,0.00,VWS V14.00,2013-05-06 04:09:00,
2013-05-06 00:18:00,52.5,49.4,28.76,SE,130,0.0,0.0,89,0.00,,SKC,0.00,VWS V14.00,2013-05-06 04:18:00,
2013-05-06 00:23:00,52.7,49.5,28.76,SE,130,0.0,0.0,89,0.00,,SKC,0.00,VWS V14.00,2013-05-06 04:23:00,
2013-05-06 00:28:00,52.7,49.5,28.76,SE,130,0.0,0.0,89,0.00,,SKC,0.00,VWS V14.00,2013-05-06 04:28:00,
2013-05-06 00:29:00,52.7,49.5,28.76,SE,130,0.0,0.0,89,0.00,,SKC,0.00,VWS V14.00,2013-05-06 04:29:00,
2013-05-06 00:38:00,52.5,49.1,28.79,SE,130,0.0,0.0,88,0.00,,SKC,0.00,VWS V14.00,2013-05-06 04:38:00,
2013-05-06 00:43:00,52.3,48.9,28.79,South,189,0.0,2.2,88,0.00,,SKC,0.00,VWS V14.00,2013-05-06 04:43:00,
2013-05-06 00:48:00,52.3,49.2,28.79,SE,141,0.0,2.2,89,0.00,,SKC,0.00,VWS V14.00,2013-05-06 04:48:00,
2013-05-06 00:53:00,52.3,49.2,28.79,SE,133,3.2,3.2,89,0.00,,SKC,0.00,VWS V14.00,2013-05-06 04:53:00,
2013-05-06 00:58:00,52.2,49.0,28.79,SW,223,0.0,2.7,89,0.00,,SKC,0.00,VWS V14.00,2013-05-06 04:58:00,
2013-05-06 01:03:00,52.2,49.0,28.79,East,90,0.0,0.0,89,0.00,,SKC,0.00,VWS V14.00,2013-05-06 05:03:00,
2013-05-06 01:08:00,52.0,48.8,28.79,ENE,76,0.0,0.0,89,0.00,,SKC,0.00,VWS V14.00,2013-05-06 05:08:00,
2013-05-06 01:13:00,52.0,48.8,28.79,East,92,0.0,2.7,89,0.04,,SKC,0.04,VWS V14.00,2013-05-06 05:13:00,
2013-05-06 01:18:00,51.8,48.7,28.79,NNW,329,0.0,5.8,89,0.04,,SKC,0.04,VWS V14.00,2013-05-06 05:18:00,
2013-05-06 01:23:00,51.6,48.5,28.79,SSW,201,0.0,4.0,89,0.04,,SKC,0.04,VWS V14.00,2013-05-06 05:23:00,
2013-05-06 01:28:00,51.6,48.5,28.79,SE,145,0.0,4.0,89,0.04,,SKC,0.04,VWS V14.00,2013-05-06 05:28:00,
2013-05-06 01:33:00,51.4,48.3,28.79,ENE,60,0.0,0.0,89,0.04,,SKC,0.04,VWS V14.00,2013-05-06 05:33:00,
2013-05-06 01:38:00,51.4,48.3,28.79,ENE,60,0.0,0.0,89,0.08,,SKC,0.08,VWS V14.00,2013-05-06 05:38:00,
2013-05-06 01:43:00,51.3,48.1,28.79,ENE,61,0.0,0.0,89,0.08,,SKC,0.08,VWS V14.00,2013-05-06 05:43:00,
2013-05-06 01:48:00,51.3,48.1,28.76,ENE,61,0.0,0.0,89,0.08,,SKC,0.08,VWS V14.00,2013-05-06 05:48:00,
2013-05-06 01:53:00,51.3,48.1,28.76,ENE,61,0.0,0.0,89,0.08,,SKC,0.08,VWS V14.00,2013-05-06 05:53:00,
2013-05-06 01:58:00,51.1,48.0,28.76,ENE,61,0.0,0.0,89,0.08,,SKC,0.08,VWS V14.00,2013-05-06 05:58:00,
2013-05-06 02:03:00,51.3,48.1,28.76,ENE,61,0.0,0.0,89,0.08,,SKC,0.08,VWS V14.00,2013-05-06 06:03:00,
2013-05-06 02:08:00,51.1,48.0,28.76,ENE,61,0.0,0.0,89,0.08,,SKC,0.08,VWS V14.00,2013-05-06 06:08:00,
2013-05-06 02:13:00,51.1,48.0,28.76,ENE,61,0.0,0.0,89,0.12,,SKC,0.12,VWS V14.00,2013-05-06 06:13:00,
2013-05-06 02:18:00,50.9,47.8,28.76,ESE,116,0.0,0.0,89,0.12,,SKC,0.12,VWS V14.00,2013-05-06 06:18:00,
2013-05-06 02:23:00,50.7,47.6,28.76,ESE,116,0.0,0.0,89,0.08,,SKC,0.12,VWS V14.00,2013-05-06 06:23:00,
2013-05-06 02:28:00,50.7,47.6,28.76,ESE,116,0.0,0.0,89,0.08,,SKC,0.12,VWS V14.00,2013-05-06 06:28:00,
2013-05-06 02:33:00,50.7,47.6,28.76,ESE,116,0.0,0.0,89,0.08,,SKC,0.12,VWS V14.00,2013-05-06 06:33:00,
2013-05-06 02:38:00,50.9,47.8,28.76,ESE,116,0.0,0.0,89,0.12,,SKC,0.16,VWS V14.00,2013-05-06 06:38:00,
2013-05-06 02:44:00,50.7,47.6,28.76,ESE,116,0.0,0.0,89,0.08,,SKC,0.16,VWS V14.00,2013-05-06 06:44:00,
2013-05-06 02:49:00,50.5,47.4,28.76,ESE,116,0.0,0.0,89,0.08,,SKC,0.16,VWS V14.00,2013-05-06 06:49:00,
2013-05-06 02:54:00,50.2,47.1,28.76,ESE,116,0.0,0.0,89,0.12,,SKC,0.20,VWS V14.00,2013-05-06 06:54:00,
2013-05-06 02:59:00,50.2,47.1,28.76,ESE,116,0.0,0.0,89,0.12,,SKC,0.20,VWS V14.00,2013-05-06 06:59:00,
2013-05-06 03:04:00,50.0,46.9,28.73,NNE,21,0.0,0.0,89,0.12,,SKC,0.20,VWS V14.00,2013-05-06 07:04:00,
2013-05-06 03:09:00,49.8,46.7,28.73,NNE,17,0.0,0.0,89,0.16,,SKC,0.24,VWS V14.00,2013-05-06 07:09:00,
2013-05-06 03:14:00,49.6,46.5,28.73,NNE,18,0.0,0.0,89,0.12,,SKC,0.24,VWS V14.00,2013-05-06 07:14:00,
2013-05-06 03:19:00,49.5,46.4,28.73,NNE,28,0.0,0.0,89,0.12,,SKC,0.24,VWS V14.00,2013-05-06 07:19:00,
2013-05-06 03:24:00,49.3,46.2,28.73,NNE,19,0.0,0.0,89,0.12,,SKC,0.24,VWS V14.00,2013-05-06 07:24:00,
2013-05-06 03:29:00,49.3,46.2,28.73,NNE,24,0.0,3.6,89,0.12,,SKC,0.24,VWS V14.00,2013-05-06 07:29:00,
2013-05-06 03:34:00,49.3,46.2,28.73,NNE,30,0.0,3.6,89,0.12,,SKC,0.24,VWS V14.00,2013-05-06 07:34:00,
2013-05-06 03:39:00,49.3,46.5,28.73,NNE,27,0.0,3.6,90,0.12,,SKC,0.24,VWS V14.00,2013-05-06 07:39:00,
2013-05-06 03:44:00,49.5,46.7,28.73,NNE,27,0.0,0.0,90,0.08,,SKC,0.24,VWS V14.00,2013-05-06 07:44:00,
2013-05-06 03:49:00,49.6,46.8,28.73,SSW,204,0.0,0.0,90,0.08,,SKC,0.24,VWS V14.00,2013-05-06 07:49:00,
2013-05-06 03:54:00,49.6,46.8,28.73,SW,217,0.0,0.0,90,0.08,,SKC,0.24,VWS V14.00,2013-05-06 07:54:00,
2013-05-06 03:59:00,49.6,46.8,28.73,SW,217,0.0,0.0,90,0.08,,SKC,0.24,VWS V14.00,2013-05-06 07:59:00,
2013-05-06 04:04:00,49.8,47.0,28.73,SW,217,0.0,0.0,90,0.04,,SKC,0.24,VWS V14.00,2013-05-06 08:04:00,
2013-05-06 04:09:00,49.8,47.0,28.73,SW,218,0.0,0.0,90,0.04,,SKC,0.24,VWS V14.00,2013-05-06 08:09:00,
2013-05-06 04:14:00,50.0,46.9,28.73,SW,217,0.0,0.0,89,0.00,,SKC,0.24,VWS V14.00,2013-05-06 08:14:00,
2013-05-06 04:19:00,49.8,47.0,28.73,SW,217,0.0,0.0,90,0.00,,SKC,0.24,VWS V14.00,2013-05-06 08:19:00,
2013-05-06 04:24:00,50.0,46.9,28.73,SW,217,0.0,0.0,89,0.00,,SKC,0.24,VWS V14.00,2013-05-06 08:24:00,
2013-05-06 04:29:00,50.0,47.2,28.73,SW,217,0.0,0.0,90,0.00,,SKC,0.24,VWS V14.00,2013-05-06 08:29:00,
2013-05-06 04:34:00,50.0,46.9,28.73,SSE,164,0.0,0.0,89,0.00,,SKC,0.24,VWS V14.00,2013-05-06 08:34:00,
2013-05-06 04:39:00,50.0,46.9,28.73,SE,128,0.0,0.0,89,0.00,,SKC,0.24,VWS V14.00,2013-05-06 08:39:00,
2013-05-06 04:44:00,50.0,46.9,28.73,SE,128,0.0,0.0,89,0.00,,SKC,0.24,VWS V14.00,2013-05-06 08:44:00,
2013-05-06 04:49:00,50.0,46.9,28.73,SE,128,0.0,0.0,89,0.00,,SKC,0.24,VWS V14.00,2013-05-06 08:49:00,
2013-05-06 04:54:00,50.0,46.9,28.73,SE,128,0.0,0.0,89,0.00,,SKC,0.24,VWS V14.00,2013-05-06 08:54:00,
2013-05-06 04:59:00,49.8,47.0,28.73,SE,128,0.0,0.0,90,0.00,,SKC,0.24,VWS V14.00,2013-05-06 08:59:00,
2013-05-06 05:04:00,49.6,46.8,28.73,SE,128,0.0,0.0,90,0.00,,SKC,0.24,VWS V14.00,2013-05-06 09:04:00,
2013-05-06 05:09:00,49.3,46.2,28.73,SE,128,0.0,0.0,89,0.00,,SKC,0.24,VWS V14.00,2013-05-06 09:09:00,
2013-05-06 05:14:00,49.3,46.5,28.73,SE,128,0.0,0.0,90,0.00,,SKC,0.24,VWS V14.00,2013-05-06 09:14:00,
2013-05-06 05:19:00,49.5,46.7,28.73,SE,128,0.0,0.0,90,0.00,,SKC,0.24,VWS V14.00,2013-05-06 09:19:00,
2013-05-06 05:24:00,49.3,46.5,28.73,SE,128,0.0,0.0,90,0.00,,SKC,0.24,VWS V14.00,2013-05-06 09:24:00,
2013-05-06 05:29:00,49.1,46.0,28.73,SE,128,0.0,0.0,89,0.00,,SKC,0.24,VWS V14.00,2013-05-06 09:29:00,
2013-05-06 05:34:00,49.1,46.3,28.73,SE,128,0.0,0.0,90,0.00,,SKC,0.24,VWS V14.00,2013-05-06 09:34:00,
2013-05-06 05:39:00,48.9,46.1,28.73,SE,128,0.0,0.0,90,0.00,,SKC,0.24,VWS V14.00,2013-05-06 09:39:00,
2013-05-06 05:44:00,48.7,45.7,28.73,SE,128,0.0,0.0,89,0.00,,SKC,0.24,VWS V14.00,2013-05-06 09:44:00,
2013-05-06 05:49:00,48.6,45.5,28.73,SE,128,0.0,0.0,89,0.00,,SKC,0.24,VWS V14.00,2013-05-06 09:49:00,
2013-05-06 05:54:00,48.6,45.5,28.73,SE,128,0.0,0.0,89,0.00,,SKC,0.24,VWS V14.00,2013-05-06 09:54:00,
2013-05-06 05:59:00,48.4,45.3,28.73,SE,128,0.0,0.0,89,0.00,,SKC,0.24,VWS V14.00,2013-05-06 09:59:00,
2013-05-06 06:04:00,48.4,45.3,28.73,SE,128,0.0,0.0,89,0.00,,SKC,0.24,VWS V14.00,2013-05-06 10:04:00,
2013-05-06 06:09:00,48.0,44.9,28.73,SE,128,0.0,0.0,89,0.00,,SKC,0.24,VWS V14.00,2013-05-06 10:09:00,
2013-05-06 06:14:00,47.7,44.6,28.73,SE,128,0.0,0.0,89,0.00,,SKC,0.24,VWS V14.00,2013-05-06 10:14:00,
2013-05-06 06:19:00,47.8,45.0,28.73,SE,128,0.0,0.0,90,0.00,,SKC,0.24,VWS V14.00,2013-05-06 10:19:00,
2013-05-06 06:24:00,47.7,44.9,28.73,SE,128,0.0,0.0,90,0.00,,SKC,0.24,VWS V14.00,2013-05-06 10:24:00,
2013-05-06 06:29:00,47.7,44.6,28.73,SE,128,0.0,0.0,89,0.00,,SKC,0.24,VWS V14.00,2013-05-06 10:29:00,
2013-05-06 06:34:00,47.3,44.2,28.76,SE,128,0.0,0.0,89,0.00,,SKC,0.24,VWS V14.00,2013-05-06 10:34:00,
2013-05-06 06:39:00,47.3,44.2,28.76,SE,128,0.0,0.0,89,0.00,,SKC,0.24,VWS V14.00,2013-05-06 10:39:00,
2013-05-06 06:44:00,47.1,44.0,28.76,SE,128,0.0,0.0,89,0.00,,SKC,0.24,VWS V14.00,2013-05-06 10:44:00,
2013-05-06 06:49:00,46.9,43.9,28.76,SE,128,0.0,0.0,89,0.00,,SKC,0.24,VWS V14.00,2013-05-06 10:49:00,
2013-05-06 06:54:00,46.9,43.9,28.76,SE,128,0.0,0.0,89,0.00,,SKC,0.24,VWS V14.00,2013-05-06 10:54:00,
2013-05-06 06:59:00,46.8,43.7,28.76,SE,128,0.0,0.0,89,0.00,,SKC,0.24,VWS V14.00,2013-05-06 10:59:00,
2013-05-06 07:04:00,46.8,43.7,28.76,SE,128,0.0,0.0,89,0.00,,SKC,0.24,VWS V14.00,2013-05-06 11:04:00,
2013-05-06 07:09:00,46.8,43.7,28.76,SE,128,0.0,0.0,89,0.00,,SKC,0.24,VWS V14.00,2013-05-06 11:09:00,
2013-05-06 07:14:00,46.8,43.7,28.76,SE,128,0.0,0.0,89,0.00,,SKC,0.24,VWS V14.00,2013-05-06 11:14:00,
2013-05-06 07:19:00,46.8,43.7,28.76,SE,128,0.0,0.0,89,0.00,,SKC,0.24,VWS V14.00,2013-05-06 11:19:00,
2013-05-06 07:24:00,46.8,43.7,28.76,SE,128,0.0,0.0,89,0.00,,SKC,0.24,VWS V14.00,2013-05-06 11:24:00,
2013-05-06 07:29:00,46.6,43.5,28.76,SE,128,0.0,0.0,89,0.00,,SKC,0.24,VWS V14.00,2013-05-06 11:29:00,
2013-05-06 07:34:00,46.8,43.7,28.76,SE,128,0.0,0.0,89,0.00,,SKC,0.24,VWS V14.00,2013-05-06 11:34:00,
2013-05-06 07:39:00,46.9,43.9,28.76,SE,128,0.0,0.0,89,0.00,,SKC,0.24,VWS V14.00,2013-05-06 11:39:00,
2013-05-06 07:44:00,47.1,44.0,28.76,SE,128,0.0,0.0,89,0.00,,SKC,0.24,VWS V14.00,2013-05-06 11:44:00,
2013-05-06 07:49:00,47.3,44.2,28.79,SE,128,0.0,0.0,89,0.00,,SKC,0.24,VWS V14.00,2013-05-06 11:49:00,
2013-05-06 07:54:00,47.7,44.9,28.79,SE,128,0.0,0.0,90,0.00,,SKC,0.24,VWS V14.00,2013-05-06 11:54:00,
2013-05-06 07:59:00,48.0,45.2,28.79,SE,128,0.0,0.0,90,0.00,,SKC,0.24,VWS V14.00,2013-05-06 11:59:00,
2013-05-06 08:04:00,48.4,45.6,28.76,SE,128,0.0,0.0,90,0.00,,SKC,0.24,VWS V14.00,2013-05-06 12:04:00,
2013-05-06 08:09:00,48.6,45.8,28.76,SE,128,0.0,0.0,90,0.00,,SKC,0.24,VWS V14.00,2013-05-06 12:09:00,
2013-05-06 08:14:00,48.9,46.1,28.76,SE,128,0.0,0.0,90,0.00,,SKC,0.24,VWS V14.00,2013-05-06 12:14:00,
2013-05-06 08:19:00,49.3,46.5,28.79,North,2,0.0,0.0,90,0.00,,SKC,0.24,VWS V14.00,2013-05-06 12:19:00,
2013-05-06 08:24:00,49.6,47.1,28.79,North,2,0.0,0.0,91,0.00,,SKC,0.24,VWS V14.00,2013-05-06 12:24:00,
2013-05-06 08:29:00,49.8,47.3,28.79,North,2,0.0,0.0,91,0.00,,SKC,0.24,VWS V14.00,2013-05-06 12:29:00,
2013-05-06 08:34:00,50.2,47.7,28.79,North,2,0.0,0.0,91,0.00,,SKC,0.24,VWS V14.00,2013-05-06 12:34:00,
2013-05-06 08:39:00,50.5,48.0,28.79,North,2,0.0,0.0,91,0.00,,SKC,0.24,VWS V14.00,2013-05-06 12:39:00,
2013-05-06 08:45:00,50.9,48.4,28.79,North,2,0.0,0.0,91,0.00,,SKC,0.24,VWS V14.00,2013-05-06 12:45:00,
2013-05-06 08:50:00,51.3,48.7,28.79,North,2,0.0,0.0,91,0.00,,SKC,0.24,VWS V14.00,2013-05-06 12:50:00,
2013-05-06 08:55:00,51.8,49.3,28.79,North,2,0.0,0.0,91,0.00,,SKC,0.24,VWS V14.00,2013-05-06 12:55:00,
2013-05-06 09:00:00,52.0,49.4,28.79,North,2,0.0,0.0,91,0.00,,SKC,0.24,VWS V14.00,2013-05-06 13:00:00,
2013-05-06 09:05:00,52.2,49.6,28.79,North,2,0.0,0.0,91,0.00,,SKC,0.24,VWS V14.00,2013-05-06 13:05:00,
2013-05-06 09:10:00,52.3,49.8,28.79,North,2,0.0,0.0,91,0.00,,SKC,0.24,VWS V14.00,2013-05-06 13:10:00,
2013-05-06 09:15:00,52.2,49.6,28.79,North,2,0.0,0.0,91,0.00,,SKC,0.24,VWS V14.00,2013-05-06 13:15:00,
2013-05-06 09:20:00,52.0,49.4,28.79,North,2,0.0,0.0,91,0.00,,SKC,0.24,VWS V14.00,2013-05-06 13:20:00,
2013-05-06 09:25:00,52.0,49.4,28.79,North,2,0.0,0.0,91,0.00,,SKC,0.24,VWS V14.00,2013-05-06 13:25:00,
2013-05-06 09:30:00,52.0,49.4,28.79,North,2,0.0,0.0,91,0.00,,SKC,0.24,VWS V14.00,2013-05-06 13:30:00,
2013-05-06 09:35:00,52.5,50.3,28.79,ENE,60,0.0,0.0,92,0.00,,SKC,0.24,VWS V14.00,2013-05-06 13:35:00,
2013-05-06 09:40:00,52.7,50.5,28.79,ENE,60,0.0,0.0,92,0.00,,SKC,0.24,VWS V14.00,2013-05-06 13:40:00,
2013-05-06 09:45:00,52.9,50.6,28.79,ENE,60,0.0,0.0,92,0.00,,SKC,0.24,VWS V14.00,2013-05-06 13:45:00,
2013-05-06 09:50:00,53.2,51.0,28.79,ENE,71,0.0,0.0,92,0.00,,SKC,0.24,VWS V14.00,2013-05-06 13:50:00,
2013-05-06 09:55:00,53.6,51.0,28.79,ENE,70,0.0,0.0,91,0.00,,SKC,0.24,VWS V14.00,2013-05-06 13:55:00,
2013-05-06 10:00:00,54.3,52.0,28.79,ENE,70,0.0,0.0,92,0.00,,SKC,0.24,VWS V14.00,2013-05-06 14:00:00,
2013-05-06 10:05:00,54.5,51.9,28.82,North,357,0.0,0.0,91,0.00,,SKC,0.24,VWS V14.00,2013-05-06 14:05:00,
2013-05-06 10:10:00,54.5,51.9,28.82,North,357,0.0,0.0,91,0.00,,SKC,0.24,VWS V14.00,2013-05-06 14:10:00,
2013-05-06 10:15:00,54.7,52.1,28.82,North,357,0.0,0.0,91,0.00,,SKC,0.24,VWS V14.00,2013-05-06 14:15:00,
2013-05-06 10:20:00,54.7,52.1,28.82,North,357,0.0,0.0,91,0.00,,SKC,0.24,VWS V14.00,2013-05-06 14:20:00,
2013-05-06 10:25:00,54.7,52.1,28.82,North,357,0.0,0.0,91,0.00,,SKC,0.24,VWS V14.00,2013-05-06 14:25:00,
2013-05-06 10:30:00,54.9,52.3,28.82,North,357,0.0,0.0,91,0.00,,SKC,0.24,VWS V14.00,2013-05-06 14:30:00,
2013-05-06 10:35:00,55.2,52.6,28.82,NE,46,0.0,0.0,91,0.00,,SKC,0.24,VWS V14.00,2013-05-06 14:35:00,
2013-05-06 10:40:00,55.6,53.0,28.82,SSW,209,0.0,0.0,91,0.00,,SKC,0.24,VWS V14.00,2013-05-06 14:40:00,
2013-05-06 10:45:00,55.8,53.2,28.82,West,278,0.0,0.0,91,0.00,,SKC,0.24,VWS V14.00,2013-05-06 14:45:00,
2013-05-06 10:50:00,55.9,53.4,28.82,SSE,157,0.0,0.0,91,0.00,,SKC,0.24,VWS V14.00,2013-05-06 14:50:00,
2013-05-06 10:55:00,55.9,53.4,28.82,SSW,210,0.0,0.0,91,0.00,,SKC,0.24,VWS V14.00,2013-05-06 14:55:00,
2013-05-06 11:00:00,56.1,53.5,28.82,SSW,210,0.0,0.0,91,0.00,,SKC,0.24,VWS V14.00,2013-05-06 15:00:00,
2013-05-06 11:05:00,55.9,53.0,28.82,South,176,0.0,0.0,90,0.00,,SKC,0.24,VWS V14.00,2013-05-06 15:05:00,
2013-05-06 11:10:00,56.3,53.7,28.82,South,176,0.0,0.0,91,0.00,,SKC,0.24,VWS V14.00,2013-05-06 15:10:00,
2013-05-06 11:15:00,56.5,53.6,28.82,SW,227,0.0,0.0,90,0.00,,SKC,0.24,VWS V14.00,2013-05-06 15:15:00,
2013-05-06 11:20:00,56.7,53.8,28.82,SW,216,0.0,0.0,90,0.00,,SKC,0.24,VWS V14.00,2013-05-06 15:20:00,
2013-05-06 11:25:00,56.7,53.8,28.82,SW,216,0.0,0.0,90,0.00,,SKC,0.24,VWS V14.00,2013-05-06 15:25:00,
2013-05-06 11:30:00,56.7,53.8,28.82,SW,229,0.0,0.0,90,0.00,,SKC,0.24,VWS V14.00,2013-05-06 15:30:00,
2013-05-06 11:35:00,56.7,53.8,28.82,SW,229,0.0,0.0,90,0.00,,SKC,0.24,VWS V14.00,2013-05-06 15:35:00,
2013-05-06 11:40:00,56.3,53.1,28.82,SW,229,0.0,0.0,89,0.00,,SKC,0.24,VWS V14.00,2013-05-06 15:40:00,
2013-05-06 11:45:00,55.9,52.8,28.82,SW,234,0.0,0.0,89,0.00,,SKC,0.24,VWS V14.00,2013-05-06 15:45:00,
2013-05-06 11:50:00,55.8,52.6,28.82,SW,234,0.0,0.0,89,0.00,,SKC,0.24,VWS V14.00,2013-05-06 15:50:00,
2013-05-06 11:55:00,55.6,52.4,28.82,SW,235,0.0,0.0,89,0.00,,SKC,0.24,VWS V14.00,2013-05-06 15:55:00,
2013-05-06 12:00:00,55.4,52.2,28.82,SW,235,0.0,0.0,89,0.00,,SKC,0.24,VWS V14.00,2013-05-06 16:00:00,
2013-05-06 12:05:00,55.2,52.3,28.82,SW,235,0.0,0.0,90,0.00,,SKC,0.24,VWS V14.00,2013-05-06 16:05:00,
2013-05-06 12:10:00,55.0,51.9,28.82,SW,214,0.0,0.0,89,0.00,,SKC,0.24,VWS V14.00,2013-05-06 16:10:00,
2013-05-06 12:15:00,55.2,52.3,28.82,SSW,213,0.0,0.0,90,0.00,,SKC,0.24,VWS V14.00,2013-05-06 16:15:00,
2013-05-06 12:20:00,55.2,52.3,28.82,SW,223,0.0,0.0,90,0.00,,SKC,0.24,VWS V14.00,2013-05-06 16:20:00,
2013-05-06 12:25:00,55.2,52.3,28.82,SW,223,0.0,0.0,90,0.00,,SKC,0.24,VWS V14.00,2013-05-06 16:25:00,
2013-05-06 12:30:00,55.2,52.3,28.82,SW,224,0.0,0.0,90,0.00,,SKC,0.24,VWS V14.00,2013-05-06 16:30:00,
2013-05-06 12:35:00,55.6,52.4,28.82,SW,224,0.0,0.0,89,0.00,,SKC,0.24,VWS V14.00,2013-05-06 16:35:00,
2013-05-06 12:40:00,55.6,52.4,28.82,SW,224,0.0,0.0,89,0.00,,SKC,0.24,VWS V14.00,2013-05-06 16:40:00,
2013-05-06 12:45:00,55.9,52.8,28.82,WNW,297,0.0,0.0,89,0.00,,SKC,0.24,VWS V14.00,2013-05-06 16:45:00,
2013-05-06 12:50:00,56.3,53.1,28.82,WNW,297,0.0,0.0,89,0.00,,SKC,0.24,VWS V14.00,2013-05-06 16:50:00,
2013-05-06 12:55:00,56.8,53.6,28.82,WNW,297,0.0,0.0,89,0.00,,SKC,0.24,VWS V14.00,2013-05-06 16:55:00,
2013-05-06 13:00:00,57.0,53.8,28.82,WNW,297,0.0,0.0,89,0.00,,SKC,0.24,VWS V14.00,2013-05-06 17:00:00,
2013-05-06 13:05:00,57.2,54.0,28.82,NW,322,0.0,0.0,89,0.00,,SKC,0.24,VWS V14.00,2013-05-06 17:05:00,
2013-05-06 13:10:00,57.2,53.7,28.82,NNW,329,0.0,0.0,88,0.00,,SKC,0.24,VWS V14.00,2013-05-06 17:10:00,
2013-05-06 13:15:00,57.4,53.9,28.82,WNW,287,0.0,0.0,88,0.00,,SKC,0.24,VWS V14.00,2013-05-06 17:15:00,
2013-05-06 13:20:00,57.6,54.0,28.79,WNW,287,0.0,0.0,88,0.00,,SKC,0.24,VWS V14.00,2013-05-06 17:20:00,
2013-05-06 13:25:00,57.6,54.0,28.79,WNW,287,0.0,0.0,88,0.00,,SKC,0.24,VWS V14.00,2013-05-06 17:25:00,
2013-05-06 13:30:00,57.4,53.5,28.79,NW,305,0.0,0.0,87,0.00,,SKC,0.24,VWS V14.00,2013-05-06 17:30:00,
2013-05-06 13:35:00,57.4,53.5,28.79,WNW,288,0.0,0.0,87,0.00,,SKC,0.24,VWS V14.00,2013-05-06 17:35:00,
2013-05-06 13:40:00,57.7,54.2,28.79,West,274,0.0,0.0,88,0.00,,SKC,0.24,VWS V14.00,2013-05-06 17:40:00,
2013-05-06 13:45:00,57.9,54.4,28.79,West,274,0.0,0.0,88,0.00,,SKC,0.24,VWS V14.00,2013-05-06 17:45:00,
2013-05-06 13:50:00,58.3,54.8,28.79,South,172,3.2,3.2,88,0.00,,SKC,0.24,VWS V14.00,2013-05-06 17:50:00,
2013-05-06 13:55:00,58.3,54.4,28.79,SSE,164,0.0,3.1,87,0.00,,SKC,0.24,VWS V14.00,2013-05-06 17:55:00,
2013-05-06 14:00:00,58.3,54.4,28.79,WNW,301,0.0,0.0,87,0.00,,SKC,0.24,VWS V14.00,2013-05-06 18:00:00,
2013-05-06 14:05:00,58.3,54.4,28.79,WNW,301,0.0,0.0,87,0.00,,SKC,0.24,VWS V14.00,2013-05-06 18:05:00,
2013-05-06 14:10:00,58.5,54.6,28.79,WNW,301,0.0,0.0,87,0.00,,SKC,0.24,VWS V14.00,2013-05-06 18:10:00,
2013-05-06 14:15:00,58.3,54.1,28.79,West,262,0.0,0.0,86,0.00,,SKC,0.24,VWS V14.00,2013-05-06 18:15:00,
2013-05-06 14:20:00,58.1,53.9,28.79,West,262,0.0,0.0,86,0.00,,SKC,0.24,VWS V14.00,2013-05-06 18:20:00,
2013-05-06 14:25:00,57.9,53.8,28.79,West,261,0.0,0.0,86,0.00,,SKC,0.24,VWS V14.00,2013-05-06 18:25:00,
2013-05-06 14:31:00,57.7,53.6,28.79,West,262,0.0,0.0,86,0.00,,SKC,0.24,VWS V14.00,2013-05-06 18:31:00,
2013-05-06 14:36:00,57.7,53.6,28.82,West,262,0.0,0.0,86,0.00,,SKC,0.24,VWS V14.00,2013-05-06 18:36:00,
2013-05-06 14:41:00,58.1,53.9,28.82,West,262,0.0,0.0,86,0.00,,SKC,0.24,VWS V14.00,2013-05-06 18:41:00,
2013-05-06 14:46:00,58.5,54.3,28.82,West,261,0.0,0.0,86,0.00,,SKC,0.24,VWS V14.00,2013-05-06 18:46:00,
2013-05-06 14:51:00,58.8,54.7,28.79,SE,131,0.0,0.0,86,0.00,,SKC,0.24,VWS V14.00,2013-05-06 18:51:00,
2013-05-06 14:56:00,59.2,55.0,28.79,SE,132,0.0,0.0,86,0.00,,SKC,0.24,VWS V14.00,2013-05-06 18:56:00,
2013-05-06 15:01:00,59.5,55.3,28.79,WSW,237,0.0,0.0,86,0.00,,SKC,0.24,VWS V14.00,2013-05-06 19:01:00,
2013-05-06 15:06:00,59.7,55.5,28.79,SSE,168,0.0,0.0,86,0.00,,SKC,0.24,VWS V14.00,2013-05-06 19:06:00,
2013-05-06 15:11:00,59.9,55.4,28.79,NW,305,0.0,0.0,85,0.00,,SKC,0.24,VWS V14.00,2013-05-06 19:11:00,
2013-05-06 15:16:00,59.7,55.2,28.79,SSW,213,0.0,0.0,85,0.00,,SKC,0.24,VWS V14.00,2013-05-06 19:16:00,
2013-05-06 15:21:00,60.1,55.6,28.79,SSW,212,0.0,0.0,85,0.00,,SKC,0.24,VWS V14.00,2013-05-06 19:21:00,
2013-05-06 15:26:00,60.4,56.2,28.79,SSW,206,0.0,0.0,86,0.00,,SKC,0.24,VWS V14.00,2013-05-06 19:26:00,
2013-05-06 15:31:00,60.4,55.9,28.79,SW,234,0.0,0.0,85,0.00,,SKC,0.24,VWS V14.00,2013-05-06 19:31:00,
2013-05-06 15:36:00,60.6,56.1,28.79,NW,318,0.0,0.0,85,0.00,,SKC,0.24,VWS V14.00,2013-05-06 19:36:00,
2013-05-06 15:41:00,60.8,55.9,28.79,WSW,243,0.0,2.7,84,0.00,,SKC,0.24,VWS V14.00,2013-05-06 19:41:00,
2013-05-06 15:46:00,61.2,56.3,28.79,WSW,240,0.0,2.7,84,0.00,,SKC,0.24,VWS V14.00,2013-05-06 19:46:00,
2013-05-06 15:51:00,61.3,56.5,28.79,NW,316,0.0,0.0,84,0.00,,SKC,0.24,VWS V14.00,2013-05-06 19:51:00,
2013-05-06 15:56:00,61.2,56.0,28.79,West,271,0.0,5.4,83,0.00,,SKC,0.24,VWS V14.00,2013-05-06 19:56:00,
2013-05-06 16:01:00,60.6,55.4,28.79,South,191,0.0,0.0,83,0.00,,SKC,0.24,VWS V14.00,2013-05-06 20:01:00,
2013-05-06 16:06:00,60.3,55.1,28.79,NNW,328,0.0,5.8,83,0.00,,SKC,0.24,VWS V14.00,2013-05-06 20:06:00,
2013-05-06 16:11:00,60.1,54.9,28.79,SSE,166,0.0,0.0,83,0.00,,SKC,0.24,VWS V14.00,2013-05-06 20:11:00,
2013-05-06 16:16:00,60.1,54.9,28.79,SSW,201,0.0,0.0,83,0.00,,SKC,0.24,VWS V14.00,2013-05-06 20:16:00,
2013-05-06 16:21:00,59.9,54.4,28.79,South,181,0.0,0.0,82,0.00,,SKC,0.24,VWS V14.00,2013-05-06 20:21:00,
2013-05-06 16:26:00,59.9,54.4,28.79,South,181,0.0,0.0,82,0.00,,SKC,0.24,VWS V14.00,2013-05-06 20:26:00,
2013-05-06 16:31:00,60.1,54.6,28.79,WSW,255,0.0,0.0,82,0.00,,SKC,0.24,VWS V14.00,2013-05-06 20:31:00,
2013-05-06 16:36:00,60.1,54.6,28.79,WSW,256,0.0,0.0,82,0.00,,SKC,0.24,VWS V14.00,2013-05-06 20:36:00,
2013-05-06 16:41:00,60.3,54.8,28.79,SSW,194,0.0,0.0,82,0.00,,SKC,0.24,VWS V14.00,2013-05-06 20:41:00,
2013-05-06 16:46:00,60.4,54.6,28.79,WSW,238,0.0,3.1,81,0.00,,SKC,0.24,VWS V14.00,2013-05-06 20:46:00,
2013-05-06 16:51:00,60.8,54.9,28.79,SW,234,0.0,0.0,81,0.00,,SKC,0.24,VWS V14.00,2013-05-06 20:51:00,
2013-05-06 16:56:00,60.8,54.9,28.79,ESE,108,0.0,0.0,81,0.00,,SKC,0.24,VWS V14.00,2013-05-06 20:56:00,
2013-05-06 17:01:00,60.6,54.8,28.79,SSE,161,0.0,2.2,81,0.00,,SKC,0.24,VWS V14.00,2013-05-06 21:01:00,
2013-05-06 17:06:00,60.3,54.1,28.79,SE,136,0.0,2.2,80,0.00,,SKC,0.24,VWS V14.00,2013-05-06 21:06:00,
2013-05-06 17:11:00,60.1,54.2,28.79,SE,144,0.0,0.0,81,0.00,,SKC,0.24,VWS V14.00,2013-05-06 21:11:00,
2013-05-06 17:16:00,60.3,54.4,28.79,South,182,0.0,2.7,81,0.00,,SKC,0.24,VWS V14.00,2013-05-06 21:16:00,
2013-05-06 17:21:00,60.4,54.2,28.79,NNW,338,0.0,2.7,80,0.00,,SKC,0.24,VWS V14.00,2013-05-06 21:21:00,
2013-05-06 17:26:00,60.4,54.2,28.79,SSE,168,0.0,4.0,80,0.00,,SKC,0.24,VWS V14.00,2013-05-06 21:26:00,
2013-05-06 17:31:00,60.1,53.6,28.79,NW,317,0.0,0.0,79,0.00,,SKC,0.24,VWS V14.00,2013-05-06 21:31:00,
2013-05-06 17:36:00,60.1,53.6,28.79,WNW,297,0.0,4.0,79,0.00,,SKC,0.24,VWS V14.00,2013-05-06 21:36:00,
2013-05-06 17:41:00,60.1,53.6,28.79,WNW,301,0.0,0.0,79,0.00,,SKC,0.24,VWS V14.00,2013-05-06 21:41:00,
2013-05-06 17:46:00,59.9,53.0,28.79,West,266,0.0,0.0,78,0.00,,SKC,0.24,VWS V14.00,2013-05-06 21:46:00,
2013-05-06 17:51:00,59.7,52.9,28.79,NW,319,0.0,0.0,78,0.00,,SKC,0.24,VWS V14.00,2013-05-06 21:51:00,
2013-05-06 17:56:00,59.7,52.9,28.79,WSW,256,0.0,0.0,78,0.00,,SKC,0.24,VWS V14.00,2013-05-06 21:56:00,
2013-05-06 18:01:00,59.7,52.9,28.79,WSW,256,0.0,0.0,78,0.00,,SKC,0.24,VWS V14.00,2013-05-06 22:01:00,
2013-05-06 18:06:00,59.7,52.9,28.79,WSW,237,0.0,0.0,78,0.00,,SKC,0.24,VWS V14.00,2013-05-06 22:06:00,
2013-05-06 18:11:00,59.7,52.9,28.79,West,264,0.0,0.0,78,0.00,,SKC,0.24,VWS V14.00,2013-05-06 22:11:00,
2013-05-06 18:16:00,59.7,52.9,28.79,SW,214,0.0,0.0,78,0.00,,SKC,0.24,VWS V14.00,2013-05-06 22:16:00,
2013-05-06 18:21:00,60.1,53.6,28.79,SW,216,0.0,2.2,79,0.00,,SKC,0.24,VWS V14.00,2013-05-06 22:21:00,
2013-05-06 18:26:00,60.1,53.2,28.79,ESE,102,0.0,4.0,78,0.00,,SKC,0.24,VWS V14.00,2013-05-06 22:26:00,
2013-05-06 18:31:00,60.1,53.2,28.79,South,190,3.2,3.2,78,0.00,,SKC,0.24,VWS V14.00,2013-05-06 22:31:00,
2013-05-06 18:36:00,60.1,52.9,28.79,SE,125,0.0,4.9,77,0.00,,SKC,0.24,VWS V14.00,2013-05-06 22:36:00,
2013-05-06 18:41:00,59.7,52.5,28.79,SW,229,3.8,3.8,77,0.00,,SKC,0.24,VWS V14.00,2013-05-06 22:41:00,
2013-05-06 18:46:00,59.7,52.9,28.79,SSW,211,0.0,3.6,78,0.00,,SKC,0.24,VWS V14.00,2013-05-06 22:46:00,
2013-05-06 18:51:00,59.7,52.5,28.79,WNW,295,3.2,3.2,77,0.00,,SKC,0.24,VWS V14.00,2013-05-06 22:51:00,
2013-05-06 18:56:00,59.7,52.5,28.79,SW,222,4.3,8.3,77,0.00,,SKC,0.24,VWS V14.00,2013-05-06 22:56:00,
2013-05-06 19:01:00,59.4,51.8,28.79,WSW,240,0.0,0.0,76,0.00,,SKC,0.24,VWS V14.00,2013-05-06 23:01:00,
2013-05-06 19:06:00,59.0,51.5,28.79,SE,128,0.0,0.0,76,0.00,,SKC,0.24,VWS V14.00,2013-05-06 23:06:00,
2013-05-06 19:11:00,58.6,51.1,28.79,NNW,333,0.0,0.0,76,0.00,,SKC,0.24,VWS V14.00,2013-05-06 23:11:00,
2013-05-06 19:16:00,58.5,50.9,28.79,South,186,0.0,2.2,76,0.00,,SKC,0.24,VWS V14.00,2013-05-06 23:16:00,
2013-05-06 19:21:00,58.1,50.6,28.79,SW,220,0.0,0.0,76,0.00,,SKC,0.24,VWS V14.00,2013-05-06 23:21:00,
2013-05-06 19:26:00,57.9,50.4,28.79,ENE,76,0.0,2.2,76,0.00,,SKC,0.24,VWS V14.00,2013-05-06 23:26:00,
2013-05-06 19:31:00,57.6,50.1,28.79,ENE,76,0.0,0.0,76,0.00,,SKC,0.24,VWS V14.00,2013-05-06 23:31:00,
2013-05-06 19:36:00,57.2,49.7,28.79,ESE,105,0.0,0.0,76,0.00,,SKC,0.24,VWS V14.00,2013-05-06 23:36:00,
2013-05-06 19:41:00,57.0,49.9,28.79,SSE,155,0.0,0.0,77,0.00,,SKC,0.24,VWS V14.00,2013-05-06 23:41:00,
2013-05-06 19:46:00,56.8,49.4,28.79,SE,144,0.0,0.0,76,0.00,,SKC,0.24,VWS V14.00,2013-05-06 23:46:00,
2013-05-06 19:51:00,56.5,49.0,28.82,ESE,117,0.0,0.0,76,0.00,,SKC,0.24,VWS V14.00,2013-05-06 23:51:00,
2013-05-06 19:56:00,56.3,48.8,28.82,ESE,117,0.0,0.0,76,0.00,,SKC,0.24,VWS V14.00,2013-05-06 23:56:00,
2013-05-06 20:01:00,56.3,48.8,28.82,ESE,117,0.0,0.0,76,0.00,,SKC,0.24,VWS V14.00,2013-05-07 00:01:00,
2013-05-06 20:07:00,55.9,48.5,28.82,ESE,117,0.0,0.0,76,0.00,,SKC,0.24,VWS V14.00,2013-05-07 00:07:00,
2013-05-06 20:12:00,55.8,48.3,28.82,ESE,117,0.0,0.0,76,0.00,,SKC,0.24,VWS V14.00,2013-05-07 00:12:00,
2013-05-06 20:17:00,55.6,48.2,28.82,ESE,117,0.0,0.0,76,0.00,,SKC,0.24,VWS V14.00,2013-05-07 00:17:00,
2013-05-06 20:22:00,55.2,48.2,28.82,ESE,117,0.0,0.0,77,0.00,,SKC,0.24,VWS V14.00,2013-05-07 00:22:00,
2013-05-06 20:27:00,55.0,48.0,28.82,ESE,117,0.0,0.0,77,0.00,,SKC,0.24,VWS V14.00,2013-05-07 00:27:00,
2013-05-06 20:32:00,55.0,48.0,28.82,ESE,117,0.0,0.0,77,0.00,,SKC,0.24,VWS V14.00,2013-05-07 00:32:00,
2013-05-06 20:37:00,54.7,47.3,28.82,ESE,117,0.0,0.0,76,0.00,,SKC,0.24,VWS V14.00,2013-05-07 00:37:00,
2013-05-06 20:42:00,54.5,47.5,28.82,ESE,117,0.0,0.0,77,0.00,,SKC,0.24,VWS V14.00,2013-05-07 00:42:00,
2013-05-06 20:47:00,54.3,47.3,28.82,ESE,117,0.0,0.0,77,0.00,,SKC,0.24,VWS V14.00,2013-05-07 00:47:00,
2013-05-06 20:52:00,54.3,47.3,28.82,ESE,117,0.0,0.0,77,0.00,,SKC,0.24,VWS V14.00,2013-05-07 00:52:00,
2013-05-06 20:57:00,54.1,47.1,28.82,ESE,117,0.0,0.0,77,0.00,,SKC,0.24,VWS V14.00,2013-05-07 00:57:00,
2013-05-06 21:02:00,53.8,46.8,28.82,ESE,117,0.0,0.0,77,0.00,,SKC,0.24,VWS V14.00,2013-05-07 01:02:00,
2013-05-06 21:07:00,53.6,46.6,28.82,ESE,112,0.0,0.0,77,0.00,,SKC,0.24,VWS V14.00,2013-05-07 01:07:00,
2013-05-06 21:12:00,53.4,46.7,28.82,ESE,112,0.0,0.0,78,0.00,,SKC,0.24,VWS V14.00,2013-05-07 01:12:00,
2013-05-06 21:17:00,53.2,46.6,28.82,ESE,112,0.0,0.0,78,0.00,,SKC,0.24,VWS V14.00,2013-05-07 01:17:00,
2013-05-06 21:22:00,53.2,46.6,28.82,ESE,112,0.0,0.0,78,0.00,,SKC,0.24,VWS V14.00,2013-05-07 01:22:00,
2013-05-06 21:27:00,53.1,46.4,28.82,ESE,112,0.0,0.0,78,0.00,,SKC,0.24,VWS V14.00,2013-05-07 01:27:00,
2013-05-06 21:32:00,53.1,46.4,28.82,ESE,112,0.0,0.0,78,0.00,,SKC,0.24,VWS V14.00,2013-05-07 01:32:00,
2013-05-06 21:37:00,52.9,46.2,28.85,ESE,112,0.0,0.0,78,0.00,,SKC,0.24,VWS V14.00,2013-05-07 01:37:00,
2013-05-06 21:42:00,52.5,45.5,28.85,ESE,112,0.0,0.0,77,0.00,,SKC,0.24,VWS V14.00,2013-05-07 01:42:00,
2013-05-06 21:47:00,52.2,45.2,28.85,ESE,112,0.0,0.0,77,0.00,,SKC,0.24,VWS V14.00,2013-05-07 01:47:00,
2013-05-06 21:52:00,52.0,45.3,28.85,ESE,112,0.0,0.0,78,0.00,,SKC,0.24,VWS V14.00,2013-05-07 01:52:00,
2013-05-06 21:57:00,52.2,45.5,28.85,ESE,112,0.0,0.0,78,0.00,,SKC,0.24,VWS V14.00,2013-05-07 01:57:00,
2013-05-06 22:02:00,52.2,45.5,28.85,ESE,112,0.0,0.0,78,0.00,,SKC,0.24,VWS V14.00,2013-05-07 02:02:00,
2013-05-06 22:07:00,52.0,45.3,28.85,ESE,112,0.0,0.0,78,0.00,,SKC,0.24,VWS V14.00,2013-05-07 02:07:00,
2013-05-06 22:12:00,51.8,45.2,28.85,ESE,112,0.0,0.0,78,0.00,,SKC,0.24,VWS V14.00,2013-05-07 02:12:00,
2013-05-06 22:17:00,51.4,44.8,28.85,ESE,112,0.0,0.0,78,0.00,,SKC,0.24,VWS V14.00,2013-05-07 02:17:00,
2013-05-06 22:22:00,51.3,45.0,28.85,ESE,112,0.0,0.0,79,0.00,,SKC,0.24,VWS V14.00,2013-05-07 02:22:00,
2013-05-06 22:27:00,51.1,44.8,28.85,ESE,112,0.0,0.0,79,0.00,,SKC,0.24,VWS V14.00,2013-05-07 02:27:00,
2013-05-06 22:32:00,51.1,44.8,28.85,ESE,112,0.0,0.0,79,0.00,,SKC,0.24,VWS V14.00,2013-05-07 02:32:00,
2013-05-06 22:37:00,51.1,44.8,28.88,ESE,112,0.0,0.0,79,0.00,,SKC,0.24,VWS V14.00,2013-05-07 02:37:00,
2013-05-06 22:42:00,50.9,44.6,28.88,ESE,112,0.0,0.0,79,0.00,,SKC,0.24,VWS V14.00,2013-05-07 02:42:00,
2013-05-06 22:47:00,50.7,44.5,28.88,ESE,112,0.0,0.0,79,0.00,,SKC,0.24,VWS V14.00,2013-05-07 02:47:00,
2013-05-06 22:52:00,50.7,44.8,28.88,ESE,112,0.0,0.0,80,0.00,,SKC,0.24,VWS V14.00,2013-05-07 02:52:00,
2013-05-06 22:57:00,50.7,44.8,28.88,ESE,112,0.0,0.0,80,0.00,,SKC,0.24,VWS V14.00,2013-05-07 02:57:00,
2013-05-06 23:02:00,50.7,44.8,28.88,ESE,112,0.0,0.0,80,0.00,,SKC,0.24,VWS V14.00,2013-05-07 03:02:00,
2013-05-06 23:07:00,50.7,44.8,28.88,ESE,112,0.0,0.0,80,0.00,,SKC,0.24,VWS V14.00,2013-05-07 03:07:00,
2013-05-06 23:12:00,50.7,44.8,28.88,ESE,112,0.0,0.0,80,0.00,,SKC,0.24,VWS V14.00,2013-05-07 03:12:00,
2013-05-06 23:17:00,50.7,44.8,28.88,ESE,112,0.0,0.0,80,0.00,,SKC,0.24,VWS V14.00,2013-05-07 03:17:00,
2013-05-06 23:22:00,50.7,44.8,28.88,ESE,112,0.0,0.0,80,0.00,,SKC,0.24,VWS V14.00,2013-05-07 03:22:00,
2013-05-06 23:27:00,50.9,45.0,28.88,ESE,112,0.0,0.0,80,0.00,,SKC,0.24,VWS V14.00,2013-05-07 03:27:00,
2013-05-06 23:32:00,50.9,45.0,28.88,ESE,112,0.0,0.0,80,0.00,,SKC,0.24,VWS V14.00,2013-05-07 03:32:00,
2013-05-06 23:37:00,50.9,45.0,28.88,ESE,112,0.0,0.0,80,0.00,,SKC,0.24,VWS V14.00,2013-05-07 03:37:00,
2013-05-06 23:42:00,50.7,44.8,28.88,ESE,112,0.0,0.0,80,0.00,,SKC,0.24,VWS V14.00,2013-05-07 03:42:00,
2013-05-06 23:47:00,50.5,44.9,28.88,ESE,112,0.0,0.0,81,0.00,,SKC,0.24,VWS V14.00,2013-05-07 03:47:00,
2013-05-06 23:52:00,50.5,44.9,28.88,ESE,112,0.0,0.0,81,0.00,,SKC,0.24,VWS V14.00,2013-05-07 03:52:00,
2013-05-06 23:57:00,50.5,44.9,28.88,ESE,112,0.0,0.0,81,0.00,,SKC,0.24,VWS V14.00,2013-05-07 03:57:00,